Meteoalarm - Portugal e Ilhas:

Avisos Meteorológicos para Portugal e Ilhas


Visite-nos no Facebook:

Visite-nos no Facebook


Madeira Webcams:


Grupo MeteoRAM Facebook:

Junte-se ao melhor e mais completo grupo de Meteorologia da Região Autónoma da Madeira



Situação meteorológica que não inspira cuidado.    Sem avisos

Weather Underground Histórico da Estação

Diário Resumo para Abril 23, 2018 Unidades:  Métrico    Inglês   Ambos
« Anterior Dia
Seguinte Dia »
Diário Semanal Mensal Anual Personalizado
  Atualmente: Alto: Baixo: Média:
Temperatura: 16.5 °C -17.8 °C 16.5 °C 16.3 °C
Ponto de orvalho: 12.8 °C -17.8 °C 11.7 °C 12.6 °C
Humidade: 79 % Humidity % 73 % 78 %
Velocidade do Vento: 12.2 km/h 0 km/h 8.7 km/h 18.2 km/h
Rajada de vento: 41.7 km/h 0 km/h - -
Vento:North - - WSW
Pressão Atmosférica: 1016.8 hPa 0 hPa 1016.5 hPa -
Precipitação: 0 mm      
Historical Graphs
 
 
Dados Tabulares para Abril 23, 2018
Hora Temperatura Ponto de orvalho Pressão Atmosférica Vento Velocidade do Vento Rajada de vento Humidade Taxa de Precipitação (Por hora)
-17.8 °C -17.8 °C 0 hPa Calm     Humidity % 0 mm
00:00 16.7 °C 13.2 °C 1017.8 hPa North 19.5 km/h 36.7 km/h 80 % 0 mm
00:05 16.7 °C 13.2 °C 1017.8 hPa North 18.3 km/h 36.7 km/h 80 % 0 mm
00:06 16.7 °C 13.2 °C 1018.2 hPa North 18.3 km/h 36.7 km/h 80 % 0 mm
00:11 16.7 °C 13.4 °C 1017.8 hPa NNW 20.9 km/h 34.3 km/h 81 % 0 mm
00:16 16.7 °C 13.4 °C 1018.2 hPa North 14.8 km/h 43.9 km/h 81 % 0 mm
00:21 16.7 °C 13.2 °C 1017.8 hPa NNE 19.5 km/h 43.9 km/h 80 % 0 mm
00:26 16.7 °C 13.1 °C 1018.2 hPa NNE 14.8 km/h 36.7 km/h 79 % 0 mm
00:31 16.7 °C 13.6 °C 1018.2 hPa North 15.8 km/h 37.8 km/h 82 % 0 mm
00:36 16.7 °C 13.4 °C 1018.2 hPa North 20.9 km/h 43.9 km/h 81 % 0 mm
00:41 16.7 °C 13.2 °C 1018.2 hPa North 17.2 km/h 43.9 km/h 80 % 0 mm
00:46 16.6 °C 13.2 °C 1018.2 hPa North 14.8 km/h 34.3 km/h 80 % 0 mm
00:51 16.6 °C 13.2 °C 1018.2 hPa North 12.2 km/h 33.2 km/h 80 % 0 mm
00:56 16.6 °C 13.3 °C 1018.2 hPa North 12.2 km/h 33.2 km/h 81 % 0 mm
01:01 16.5 °C 13.2 °C 1018.2 hPa North 15.8 km/h 31.7 km/h 81 % 0 mm
01:06 16.5 °C 13.2 °C 1018.2 hPa North 12.2 km/h 31.7 km/h 81 % 0 mm
01:11 16.5 °C 13.2 °C 1018.2 hPa NNW 13.4 km/h 30.6 km/h 81 % 0 mm
01:16 16.6 °C 12.9 °C 1018.2 hPa NNW 17.2 km/h 39.3 km/h 79 % 0 mm
01:21 16.6 °C 12.9 °C 1018.2 hPa NNW 13.4 km/h 39.3 km/h 79 % 0 mm
01:26 16.7 °C 13.1 °C 1018.2 hPa NNE 21.9 km/h 34.3 km/h 79 % 0 mm
01:31 16.7 °C 13.2 °C 1018.2 hPa NNE 25.6 km/h 40.4 km/h 80 % 0 mm
01:36 16.7 °C 13.1 °C 1018.2 hPa NNE 21.9 km/h 40.4 km/h 79 % 0 mm
01:41 16.7 °C 13.2 °C 1018.2 hPa NNE 25.6 km/h 42.8 km/h 80 % 0 mm
01:46 16.7 °C 13.1 °C 1018.2 hPa North 13.4 km/h 56.2 km/h 79 % 0 mm
01:51 16.7 °C 13.1 °C 1018.2 hPa North 28 km/h 56.2 km/h 79 % 0 mm
01:56 16.7 °C 13.4 °C 1018.2 hPa North 19.5 km/h 41.7 km/h 81 % 0 mm
02:01 16.7 °C 13.6 °C 1018.2 hPa North 12.2 km/h 41.7 km/h 82 % 0 mm
02:06 16.6 °C 13.5 °C 1018.2 hPa North 18.3 km/h 31.7 km/h 82 % 0 mm
02:11 16.6 °C 13.7 °C 1018.2 hPa North 11.1 km/h 31.7 km/h 83 % 0 mm
02:16 16.5 °C 13.6 °C 1018.2 hPa NNW 24.5 km/h 37.8 km/h 83 % 0 mm
02:21 16.6 °C 13.7 °C 1017.8 hPa NNW 23.3 km/h 42.8 km/h 83 % 0 mm
02:26 16.7 °C 13.6 °C 1017.8 hPa NNW 15.8 km/h 42.8 km/h 82 % 0 mm
02:31 16.7 °C 13.4 °C 1017.8 hPa North 19.5 km/h 42.8 km/h 81 % 0 mm
02:36 16.7 °C 13.4 °C 1017.8 hPa NNW 18.3 km/h 34.3 km/h 81 % 0 mm
02:41 16.7 °C 13.4 °C 1017.5 hPa North 18.3 km/h 33.2 km/h 81 % 0 mm
02:46 16.7 °C 13.2 °C 1017.5 hPa North 28 km/h 39.3 km/h 80 % 0 mm
02:51 16.7 °C 13.2 °C 1017.5 hPa North 23.3 km/h 39.3 km/h 80 % 0 mm
02:56 16.7 °C 13.2 °C 1017.2 hPa North 14.8 km/h 42.8 km/h 80 % 0 mm
03:01 16.7 °C 13.2 °C 1017.2 hPa NNE 15.8 km/h 42.8 km/h 80 % 0 mm
03:06 16.7 °C 13.4 °C 1017.5 hPa North 17.2 km/h 40.4 km/h 81 % 0 mm
03:11 16.8 °C 13.6 °C 1017.2 hPa North 24.5 km/h 40.4 km/h 81 % 0 mm
03:16 16.7 °C 13.1 °C 1017.2 hPa North 14.8 km/h 39.3 km/h 79 % 0 mm
03:21 16.7 °C 12.7 °C 1017.2 hPa North 9.7 km/h 37.8 km/h 77 % 0 mm
03:23 16.8 °C 12.8 °C 1017.2 hPa North 12.2 km/h 37.8 km/h 77 % 0 mm
03:28 16.7 °C 12.8 °C 1017.2 hPa NNW 11.1 km/h 34.3 km/h 78 % 0 mm
03:33 16.7 °C 13.4 °C 1017.2 hPa NNW 9.7 km/h 33.2 km/h 81 % 0 mm
03:38 16.7 °C 13.4 °C 1017.2 hPa NNW 21.9 km/h 33.2 km/h 81 % 0 mm
03:43 16.7 °C 13.2 °C 1017.2 hPa North 23.3 km/h 39.3 km/h 80 % 0 mm
03:48 16.7 °C 13.2 °C 1017.2 hPa North 13.4 km/h 39.3 km/h 80 % 0 mm
03:53 16.7 °C 13.1 °C 1016.8 hPa North 18.3 km/h 35.6 km/h 79 % 0 mm
03:58 16.7 °C 13.1 °C 1016.8 hPa North 18.3 km/h 37.8 km/h 79 % 0 mm
04:03 16.7 °C 13.1 °C 1016.8 hPa North 20.9 km/h 40.4 km/h 79 % 0 mm
04:08 16.7 °C 12.8 °C 1016.8 hPa North 19.5 km/h 40.4 km/h 78 % 0 mm
04:13 16.7 °C 13.1 °C 1016.8 hPa North 18.3 km/h 40.4 km/h 79 % 0 mm
04:18 16.7 °C 13.1 °C 1016.8 hPa North 18.3 km/h 40.4 km/h 79 % 0 mm
04:23 16.7 °C 12.7 °C 1016.5 hPa North 18.3 km/h 37.8 km/h 77 % 0 mm
04:28 16.7 °C 12.3 °C 1016.5 hPa NNW 19.5 km/h 35.6 km/h 75 % 0 mm
04:33 16.7 °C 12.3 °C 1016.5 hPa NNW 23.3 km/h 36.7 km/h 75 % 0 mm
04:38 16.7 °C 12.3 °C 1016.8 hPa North 18.3 km/h 39.3 km/h 75 % 0 mm
04:43 16.7 °C 12.3 °C 1016.8 hPa North 19.5 km/h 39.3 km/h 75 % 0 mm
04:48 16.6 °C 12.3 °C 1016.5 hPa North 21.9 km/h 35.6 km/h 76 % 0 mm
04:53 16.6 °C 11.9 °C 1016.5 hPa North 23.3 km/h 46.5 km/h 74 % 0 mm
04:58 16.6 °C 11.9 °C 1016.8 hPa NNW 24.5 km/h 46.5 km/h 74 % 0 mm
05:03 16.6 °C 11.7 °C 1016.8 hPa NNW 19.5 km/h 45.4 km/h 73 % 0 mm
05:08 16.6 °C 11.9 °C 1016.8 hPa NNW 19.5 km/h 45.4 km/h 74 % 0 mm
05:13 16.6 °C 12.3 °C 1016.5 hPa North 17.2 km/h 42.8 km/h 76 % 0 mm
05:18 16.6 °C 12.2 °C 1016.8 hPa North 20.9 km/h 42.8 km/h 75 % 0 mm
05:23 16.5 °C 11.8 °C 1016.8 hPa North 17.2 km/h 43.9 km/h 74 % 0 mm
05:28 16.6 °C 12.2 °C 1016.8 hPa North 20.9 km/h 43.9 km/h 75 % 0 mm
05:33 16.6 °C 12.3 °C 1016.8 hPa North 20.9 km/h 42.8 km/h 76 % 0 mm
05:38 16.6 °C 12.6 °C 1016.8 hPa North 23.3 km/h 42.8 km/h 77 % 0 mm
05:43 16.6 °C 12.6 °C 1016.8 hPa North 21.9 km/h 41.7 km/h 77 % 0 mm
05:48 16.5 °C 12.3 °C 1016.8 hPa North 18.3 km/h 41.7 km/h 76 % 0 mm
05:53 16.5 °C 12.8 °C 1016.5 hPa North 18.3 km/h 36.7 km/h 79 % 0 mm
05:58 16.5 °C 13.1 °C 1016.8 hPa North 24.5 km/h 43.9 km/h 80 % 0 mm
06:03 16.5 °C 13.1 °C 1016.8 hPa North 23.3 km/h 48 km/h 80 % 0 mm
06:08 16.5 °C 13.2 °C 1016.5 hPa North 17.2 km/h 48 km/h 81 % 0 mm
06:13 16.5 °C 12.7 °C 1016.5 hPa North 18.3 km/h 48 km/h 78 % 0 mm
06:18 16.5 °C 12.4 °C 1016.5 hPa North 18.3 km/h 41.7 km/h 77 % 0 mm
06:23 16.6 °C 12.6 °C 1016.5 hPa NNW 19.5 km/h 42.8 km/h 77 % 0 mm
06:28 16.6 °C 12.8 °C 1016.8 hPa North 19.5 km/h 42.8 km/h 78 % 0 mm
06:33 16.6 °C 12.9 °C 1016.8 hPa North 8.7 km/h 41.7 km/h 79 % 0 mm
06:38 16.6 °C 13.2 °C 1016.8 hPa North 17.2 km/h 31.7 km/h 80 % 0 mm
06:43 16.6 °C 13.2 °C 1016.8 hPa North 15.8 km/h 29.5 km/h 80 % 0 mm
06:48 16.5 °C 12.8 °C 1016.8 hPa North 12.2 km/h 41.7 km/h 79 % 0 mm
MeteoMachico
Cumprimentos de Weather Underground - 3 mb

Script original por  Jim McMurry - jmcmurry@mwt.net Adaptado para o modelo por  Wim van der Kuil - Leuven-Template.eu

Equipamento que usamos:

Estação Meteorológica
Weatherwise ws-1080

IPCAM
Dericam H502W

Servidor
Digital Ocean

Weatherwise ws-1080

Dericam H502W

Digital Ocean